createdAt,value
2017-05-07T00:01:17.341Z,0
2017-05-07T00:02:16.859Z,0
2017-05-07T00:03:17.401Z,0
2017-05-07T00:04:17.342Z,0
2017-05-07T00:05:17.273Z,0
2017-05-07T00:06:17.318Z,0
2017-05-07T00:07:16.851Z,0
2017-05-07T00:08:17.100Z,0
2017-05-07T00:09:16.728Z,0
2017-05-07T00:10:16.962Z,0
2017-05-07T00:11:16.998Z,0
2017-05-07T00:12:16.842Z,0
2017-05-07T00:13:16.480Z,0
2017-05-07T00:14:16.415Z,0
2017-05-07T00:15:16.658Z,0
2017-05-07T00:16:16.591Z,0
2017-05-07T00:17:16.230Z,0
2017-05-07T00:18:16.471Z,0
2017-05-07T00:19:16.104Z,0
2017-05-07T00:20:16.345Z,0
2017-05-07T00:21:16.317Z,0
2017-05-07T00:22:16.248Z,0
2017-05-07T00:23:15.877Z,0
2017-05-07T00:24:15.222Z,0
2017-05-07T00:25:16.040Z,0
2017-05-07T00:26:15.370Z,0
2017-05-07T00:27:15.915Z,0
2017-05-07T00:28:15.253Z,0
2017-05-07T00:29:15.187Z,0
2017-05-07T00:30:15.421Z,0
2017-05-07T00:31:15.364Z,0
2017-05-07T00:32:14.996Z,0
2017-05-07T00:33:15.236Z,0
2017-05-07T00:34:15.477Z,0
2017-05-07T00:35:15.114Z,0
2017-05-07T00:36:15.059Z,0
2017-05-07T00:37:14.991Z,0
2017-05-07T00:38:15.238Z,0
2017-05-07T00:39:14.900Z,0
2017-05-07T00:40:14.803Z,0
2017-05-07T00:41:14.440Z,0
2017-05-07T00:42:14.986Z,0
2017-05-07T00:43:14.622Z,0
2017-05-07T00:44:14.563Z,0
2017-05-07T00:45:14.495Z,0
2017-05-07T00:46:14.432Z,0
2017-05-07T00:47:14.070Z,0
2017-05-07T00:48:14.314Z,0
2017-05-07T00:49:13.946Z,0
2017-05-07T00:50:14.182Z,0
2017-05-07T00:51:14.123Z,0
2017-05-07T00:52:14.368Z,0
2017-05-07T00:53:13.697Z,0
2017-05-07T00:54:13.937Z,0
2017-05-07T00:55:14.177Z,0
2017-05-07T00:56:13.811Z,0
2017-05-07T00:57:13.755Z,0
2017-05-07T00:58:13.688Z,0
2017-05-07T00:59:13.621Z,0
2017-05-07T01:00:13.269Z,0
2017-05-07T01:01:13.806Z,0
2017-05-07T01:02:13.887Z,0
2017-05-07T01:03:13.691Z,0
2017-05-07T01:04:13.619Z,0
2017-05-07T01:05:13.559Z,0
2017-05-07T01:06:13.195Z,0
2017-05-07T01:07:13.432Z,0
2017-05-07T01:08:13.385Z,0
2017-05-07T01:09:13.316Z,0
2017-05-07T01:10:13.262Z,0
2017-05-07T01:11:12.889Z,0
2017-05-07T01:12:13.134Z,0
2017-05-07T01:13:12.761Z,0
2017-05-07T01:14:12.705Z,0
2017-05-07T01:15:12.668Z,0
2017-05-07T01:16:12.877Z,0
2017-05-07T01:17:12.817Z,0
2017-05-07T01:18:12.755Z,0
2017-05-07T01:19:12.390Z,0
2017-05-07T01:20:12.327Z,0
2017-05-07T01:21:12.573Z,0
2017-05-07T01:22:12.507Z,0
2017-05-07T01:23:12.439Z,0
2017-05-07T01:24:12.384Z,0
2017-05-07T01:25:12.017Z,0
2017-05-07T01:26:11.959Z,0
2017-05-07T01:27:11.897Z,0
2017-05-07T01:28:11.932Z,0
2017-05-07T01:29:11.780Z,0
2017-05-07T01:30:12.009Z,0
2017-05-07T01:31:11.645Z,0
2017-05-07T01:32:11.583Z,0
2017-05-07T01:33:12.072Z,0
2017-05-07T01:34:11.462Z,0
2017-05-07T01:35:11.704Z,0
2017-05-07T01:36:11.339Z,0
2017-05-07T01:37:11.570Z,0
2017-05-07T01:38:11.211Z,0
2017-05-07T01:39:11.460Z,0
2017-05-07T01:40:11.088Z,0
2017-05-07T01:41:11.027Z,0
2017-05-07T01:42:10.964Z,0
2017-05-07T01:43:11.207Z,0
2017-05-07T01:44:10.840Z,0
2017-05-07T01:45:10.781Z,0
2017-05-07T01:46:10.727Z,0
2017-05-07T01:47:10.347Z,0
2017-05-07T01:48:10.289Z,0
2017-05-07T01:49:10.834Z,0
2017-05-07T01:50:10.474Z,0
2017-05-07T01:51:10.712Z,0
2017-05-07T01:52:10.345Z,0
2017-05-07T01:53:10.290Z,0
2017-05-07T01:54:10.222Z,0
2017-05-07T01:55:10.157Z,0
2017-05-07T01:56:10.401Z,0
2017-05-07T01:57:10.334Z,0
2017-05-07T01:58:10.275Z,0
2017-05-07T01:59:10.217Z,0
2017-05-07T02:00:09.545Z,0
2017-05-07T02:01:09.786Z,0
2017-05-07T02:02:10.041Z,0
2017-05-07T02:03:09.670Z,0
2017-05-07T02:04:09.603Z,0
2017-05-07T02:05:09.843Z,0
2017-05-07T02:06:09.777Z,0
2017-05-07T02:07:09.720Z,0
2017-05-07T02:08:09.352Z,0
2017-05-07T02:09:09.598Z,0
2017-05-07T02:10:09.529Z,0
2017-05-07T02:11:09.475Z,0
2017-05-07T02:12:09.406Z,0
2017-05-07T02:13:09.341Z,0
2017-05-07T02:14:09.232Z,0
2017-05-07T02:15:09.221Z,0
2017-05-07T02:16:09.163Z,0
2017-05-07T02:17:09.091Z,0
2017-05-07T02:18:08.733Z,0
2017-05-07T02:19:08.982Z,0
2017-05-07T02:20:08.606Z,0
2017-05-07T02:21:08.847Z,0
2017-05-07T02:22:08.488Z,0
2017-05-07T02:23:08.734Z,0
2017-05-07T02:24:08.663Z,0
2017-05-07T02:25:08.600Z,0
2017-05-07T02:26:08.539Z,0
2017-05-07T02:27:08.474Z,0
2017-05-07T02:28:08.411Z,0
2017-05-07T02:29:08.355Z,0
2017-05-07T02:30:07.685Z,0
2017-05-07T02:31:08.237Z,0
2017-05-07T02:32:08.172Z,0
2017-05-07T02:33:08.109Z,0
2017-05-07T02:34:08.043Z,0
2017-05-07T02:35:07.678Z,0
2017-05-07T02:36:07.919Z,0
2017-05-07T02:37:07.871Z,0
2017-05-07T02:38:07.492Z,0
2017-05-07T02:39:07.727Z,0
2017-05-07T02:40:07.364Z,0
2017-05-07T02:41:07.609Z,0
2017-05-07T02:42:07.249Z,0
2017-05-07T02:43:07.481Z,0
2017-05-07T02:44:07.424Z,0
2017-05-07T02:45:07.460Z,0
2017-05-07T02:46:07.333Z,0
2017-05-07T02:47:07.239Z,0
2017-05-07T02:48:07.173Z,0
2017-05-07T02:49:07.117Z,0
2017-05-07T02:50:06.899Z,0
2017-05-07T02:51:06.993Z,0
2017-05-07T02:52:06.927Z,0
2017-05-07T02:53:06.571Z,0
2017-05-07T02:54:06.805Z,0
2017-05-07T02:55:06.744Z,0
2017-05-07T02:56:06.678Z,0
2017-05-07T02:57:06.614Z,0
2017-05-07T02:58:06.555Z,0
2017-05-07T02:59:06.490Z,0
2017-05-07T03:00:06.234Z,0
2017-05-07T03:01:06.375Z,0
2017-05-07T03:02:06.004Z,0
2017-05-07T03:03:06.239Z,0
2017-05-07T03:04:06.179Z,0
2017-05-07T03:05:05.821Z,0
2017-05-07T03:06:06.056Z,0
2017-05-07T03:07:05.693Z,0
2017-05-07T03:08:05.937Z,0
2017-05-07T03:09:05.877Z,0
2017-05-07T03:10:05.506Z,0
2017-05-07T03:11:05.750Z,0
2017-05-07T03:12:05.686Z,0
2017-05-07T03:13:05.623Z,0
2017-05-07T03:14:05.568Z,0
2017-05-07T03:15:05.198Z,0
2017-05-07T03:16:05.447Z,0
2017-05-07T03:17:05.382Z,0
2017-05-07T03:18:05.323Z,0
2017-05-07T03:19:05.251Z,0
2017-05-07T03:20:05.191Z,0
2017-05-07T03:21:05.125Z,0
2017-05-07T03:22:05.064Z,0
2017-05-07T03:23:05.015Z,0
2017-05-07T03:24:04.942Z,0
2017-05-07T03:25:04.879Z,0
2017-05-07T03:26:04.820Z,0
2017-05-07T03:27:04.757Z,4
2017-05-07T03:28:04.701Z,4
2017-05-07T03:29:04.635Z,4
2017-05-07T03:30:04.573Z,4
2017-05-07T03:31:04.509Z,4
2017-05-07T03:32:04.454Z,4
2017-05-07T03:33:04.395Z,4
2017-05-07T03:34:04.322Z,4
2017-05-07T03:35:04.262Z,4
2017-05-07T03:36:04.201Z,4
2017-05-07T03:37:04.133Z,4
2017-05-07T03:38:04.076Z,4
2017-05-07T03:39:04.017Z,4
2017-05-07T03:40:03.950Z,4
2017-05-07T03:41:03.892Z,4
2017-05-07T03:42:03.826Z,4
2017-05-07T03:43:03.768Z,4
2017-05-07T03:44:03.707Z,4
2017-05-07T03:45:03.645Z,4
2017-05-07T03:46:03.575Z,4
2017-05-07T03:47:03.518Z,4
2017-05-07T03:48:03.464Z,4
2017-05-07T03:49:03.392Z,4
2017-05-07T03:50:03.334Z,4
2017-05-07T03:51:03.272Z,4
2017-05-07T03:52:03.206Z,4
2017-05-07T03:53:03.150Z,4
2017-05-07T03:54:03.082Z,4
2017-05-07T03:55:03.028Z,4
2017-05-07T03:56:02.962Z,4
2017-05-07T03:57:02.897Z,4
2017-05-07T03:58:02.839Z,4
2017-05-07T03:59:02.777Z,4
2017-05-07T04:00:02.709Z,4
2017-05-07T04:01:02.645Z,4
2017-05-07T04:02:02.594Z,4
2017-05-07T04:03:02.529Z,4
2017-05-07T04:04:02.459Z,4
2017-05-07T04:05:02.417Z,4
2017-05-07T04:06:02.035Z,4
2017-05-07T04:07:02.313Z,4
2017-05-07T04:08:02.222Z,4
2017-05-07T04:09:02.185Z,4
2017-05-07T04:10:02.094Z,4
2017-05-07T04:11:02.033Z,4
2017-05-07T04:12:01.968Z,4
2017-05-07T04:13:01.925Z,4
2017-05-07T04:14:01.850Z,4
2017-05-07T04:15:01.790Z,4
2017-05-07T04:16:01.714Z,4
2017-05-07T04:17:01.656Z,4
2017-05-07T04:18:01.593Z,4
2017-05-07T04:19:01.533Z,4
2017-05-07T04:20:01.473Z,8
2017-05-07T04:21:01.407Z,8
2017-05-07T04:22:01.346Z,4
2017-05-07T04:23:01.288Z,4
2017-05-07T04:24:01.224Z,4
2017-05-07T04:25:01.165Z,4
2017-05-07T04:26:01.098Z,4
2017-05-07T04:27:01.033Z,4
2017-05-07T04:28:00.975Z,4
2017-05-07T04:29:00.912Z,4
2017-05-07T04:30:00.853Z,4
2017-05-07T04:31:00.787Z,4
2017-05-07T04:32:00.729Z,8
2017-05-07T04:33:00.666Z,8
2017-05-07T04:34:00.605Z,8
2017-05-07T04:35:00.541Z,8
2017-05-07T04:36:00.475Z,8
2017-05-07T04:37:00.117Z,8
2017-05-07T04:38:00.363Z,4
2017-05-07T04:39:00.305Z,4
2017-05-07T04:40:00.236Z,4
2017-05-07T04:40:59.871Z,4
2017-05-07T04:42:00.108Z,8
2017-05-07T04:43:00.044Z,8
2017-05-07T04:43:59.982Z,8
2017-05-07T04:44:59.917Z,8
2017-05-07T04:45:59.868Z,8
2017-05-07T04:46:59.793Z,8
2017-05-07T04:47:59.732Z,8
2017-05-07T04:48:59.686Z,8
2017-05-07T04:49:59.309Z,8
2017-05-07T04:50:59.798Z,8
2017-05-07T04:51:59.486Z,8
2017-05-07T04:52:59.427Z,8
2017-05-07T04:53:59.366Z,8
2017-05-07T04:54:59.307Z,8
2017-05-07T04:55:59.236Z,8
2017-05-07T04:56:59.176Z,8
2017-05-07T04:57:59.117Z,8
2017-05-07T04:58:59.048Z,8
2017-05-07T04:59:58.992Z,8
2017-05-07T05:00:58.927Z,8
2017-05-07T05:01:58.870Z,12
2017-05-07T05:02:58.811Z,12
2017-05-07T05:03:58.441Z,12
2017-05-07T05:04:58.678Z,12
2017-05-07T05:05:58.624Z,12
2017-05-07T05:06:58.552Z,12
2017-05-07T05:07:58.496Z,12
2017-05-07T05:08:58.430Z,12
2017-05-07T05:09:58.367Z,12
2017-05-07T05:10:58.307Z,12
2017-05-07T05:11:58.244Z,12
2017-05-07T05:12:58.183Z,12
2017-05-07T05:13:58.123Z,12
2017-05-07T05:14:57.756Z,12
2017-05-07T05:15:57.994Z,12
2017-05-07T05:16:57.951Z,12
2017-05-07T05:17:57.880Z,12
2017-05-07T05:18:57.805Z,12
2017-05-07T05:19:57.744Z,8
2017-05-07T05:20:57.680Z,8
2017-05-07T05:21:57.620Z,8
2017-05-07T05:22:57.559Z,8
2017-05-07T05:23:57.506Z,12
2017-05-07T05:24:57.452Z,12
2017-05-07T05:25:57.376Z,12
2017-05-07T05:26:57.310Z,12
2017-05-07T05:27:57.257Z,12
2017-05-07T05:28:57.194Z,12
2017-05-07T05:29:57.129Z,12
2017-05-07T05:30:57.074Z,16
2017-05-07T05:31:57.003Z,16
2017-05-07T05:32:56.945Z,16
2017-05-07T05:33:56.886Z,12
2017-05-07T05:34:56.823Z,12
2017-05-07T05:35:56.756Z,16
2017-05-07T05:36:56.691Z,16
2017-05-07T05:37:56.634Z,16
2017-05-07T05:38:56.568Z,16
2017-05-07T05:39:56.505Z,16
2017-05-07T05:40:56.447Z,16
2017-05-07T05:41:56.390Z,16
2017-05-07T05:42:56.324Z,16
2017-05-07T05:43:56.256Z,16
2017-05-07T05:44:56.197Z,12
2017-05-07T05:45:56.131Z,12
2017-05-07T05:46:56.068Z,12
2017-05-07T05:47:56.009Z,12
2017-05-07T05:48:55.948Z,12
2017-05-07T05:49:55.890Z,16
2017-05-07T05:50:55.825Z,16
2017-05-07T05:51:55.769Z,12
2017-05-07T05:52:55.704Z,12
2017-05-07T05:53:55.641Z,12
2017-05-07T05:54:55.580Z,12
2017-05-07T05:55:55.514Z,12
2017-05-07T05:56:55.454Z,12
2017-05-07T05:57:55.391Z,12
2017-05-07T05:58:55.332Z,12
2017-05-07T05:59:55.267Z,12
2017-05-07T06:00:54.906Z,12
2017-05-07T06:01:54.845Z,12
2017-05-07T06:02:54.780Z,12
2017-05-07T06:03:55.019Z,16
2017-05-07T06:04:54.959Z,16
2017-05-07T06:05:54.893Z,12
2017-05-07T06:06:54.835Z,12
2017-05-07T06:07:54.773Z,8
2017-05-07T06:08:54.708Z,12
2017-05-07T06:09:54.645Z,12
2017-05-07T06:10:54.587Z,16
2017-05-07T06:11:54.522Z,12
2017-05-07T06:12:54.462Z,12
2017-05-07T06:13:54.394Z,12
2017-05-07T06:14:54.342Z,12
2017-05-07T06:15:53.969Z,12
2017-05-07T06:16:54.206Z,12
2017-05-07T06:17:54.149Z,12
2017-05-07T06:18:54.084Z,12
2017-05-07T06:19:54.026Z,16
2017-05-07T06:20:53.970Z,16
2017-05-07T06:21:53.900Z,16
2017-05-07T06:22:53.836Z,16
2017-05-07T06:23:53.170Z,20
2017-05-07T06:24:53.718Z,20
2017-05-07T06:25:53.655Z,20
2017-05-07T06:26:53.591Z,16
2017-05-07T06:27:53.533Z,16
2017-05-07T06:28:53.465Z,12
2017-05-07T06:29:53.406Z,16
2017-05-07T06:30:53.342Z,16
2017-05-07T06:31:53.290Z,16
2017-05-07T06:32:53.225Z,20
2017-05-07T06:33:53.161Z,20
2017-05-07T06:34:53.097Z,24
2017-05-07T06:35:53.035Z,24
2017-05-07T06:36:52.701Z,24
2017-05-07T06:37:52.913Z,24
2017-05-07T06:38:52.549Z,24
2017-05-07T06:39:52.785Z,24
2017-05-07T06:40:52.731Z,24
2017-05-07T06:41:52.663Z,24
2017-05-07T06:42:52.600Z,24
2017-05-07T06:43:52.540Z,24
2017-05-07T06:44:52.481Z,20
2017-05-07T06:45:52.417Z,16
2017-05-07T06:46:52.352Z,16
2017-05-07T06:47:52.292Z,16
2017-05-07T06:48:52.231Z,16
2017-05-07T06:49:52.167Z,12
2017-05-07T06:50:52.101Z,12
2017-05-07T06:51:52.047Z,8
2017-05-07T06:52:51.977Z,12
2017-05-07T06:53:51.621Z,12
2017-05-07T06:54:51.859Z,12
2017-05-07T06:55:51.797Z,12
2017-05-07T06:56:51.426Z,12
2017-05-07T06:57:51.669Z,12
2017-05-07T06:58:51.607Z,12
2017-05-07T06:59:51.548Z,20
2017-05-07T07:00:51.204Z,20
2017-05-07T07:01:51.420Z,28
2017-05-07T07:02:51.358Z,36
2017-05-07T07:03:51.297Z,36
2017-05-07T07:04:51.235Z,36
2017-05-07T07:05:51.197Z,36
2017-05-07T07:06:50.815Z,36
2017-05-07T07:07:51.050Z,36
2017-05-07T07:08:50.988Z,36
2017-05-07T07:09:50.930Z,40
2017-05-07T07:10:50.866Z,32
2017-05-07T07:11:50.807Z,32
2017-05-07T07:12:50.738Z,28
2017-05-07T07:13:50.677Z,28
2017-05-07T07:14:50.618Z,28
2017-05-07T07:15:50.554Z,28
2017-05-07T07:16:50.522Z,24
2017-05-07T07:17:50.444Z,24
2017-05-07T07:18:50.063Z,24
2017-05-07T07:19:50.301Z,28
2017-05-07T07:20:50.246Z,24
2017-05-07T07:21:50.179Z,24
2017-05-07T07:22:50.116Z,28
2017-05-07T07:23:50.056Z,24
2017-05-07T07:24:49.996Z,24
2017-05-07T07:25:49.927Z,20
2017-05-07T07:26:49.871Z,20
2017-05-07T07:27:49.809Z,20
2017-05-07T07:28:49.747Z,20
2017-05-07T07:29:49.685Z,20
2017-05-07T07:30:49.322Z,24
2017-05-07T07:31:49.261Z,28
2017-05-07T07:32:49.502Z,28
2017-05-07T07:33:49.440Z,28
2017-05-07T07:34:49.373Z,32
2017-05-07T07:35:49.312Z,24
2017-05-07T07:36:49.255Z,24
2017-05-07T07:37:49.193Z,24
2017-05-07T07:38:48.834Z,24
2017-05-07T07:39:48.758Z,24
2017-05-07T07:40:49.007Z,20
2017-05-07T07:41:48.941Z,28
2017-05-07T07:42:48.882Z,32
2017-05-07T07:43:48.817Z,28
2017-05-07T07:44:48.754Z,32
2017-05-07T07:45:48.700Z,32
2017-05-07T07:46:48.329Z,32
2017-05-07T07:47:48.568Z,28
2017-05-07T07:48:48.511Z,28
2017-05-07T07:49:48.442Z,28
2017-05-07T07:50:48.084Z,24
2017-05-07T07:51:48.326Z,28
2017-05-07T07:52:48.258Z,24
2017-05-07T07:53:47.895Z,28
2017-05-07T07:54:47.831Z,32
2017-05-07T07:55:48.072Z,32
2017-05-07T07:56:48.011Z,36
2017-05-07T07:57:47.651Z,40
2017-05-07T07:58:47.891Z,48
2017-05-07T07:59:47.831Z,60
2017-05-07T08:00:49.103Z,64
2017-05-07T08:01:47.703Z,76
2017-05-07T08:02:47.640Z,72
2017-05-07T08:03:47.576Z,72
2017-05-07T08:04:47.226Z,68
2017-05-07T08:05:47.458Z,56
2017-05-07T08:06:46.785Z,52
2017-05-07T08:07:47.326Z,44
2017-05-07T08:08:46.964Z,40
2017-05-07T08:09:46.904Z,36
2017-05-07T08:10:47.143Z,32
2017-05-07T08:11:47.082Z,36
2017-05-07T08:12:47.019Z,36
2017-05-07T08:13:46.957Z,36
2017-05-07T08:14:46.602Z,40
2017-05-07T08:15:46.834Z,40
2017-05-07T08:16:46.768Z,36
2017-05-07T08:17:46.705Z,32
2017-05-07T08:18:46.340Z,36
2017-05-07T08:19:46.579Z,40
2017-05-07T08:20:45.916Z,44
2017-05-07T08:21:46.159Z,48
2017-05-07T08:22:46.402Z,52
2017-05-07T08:23:46.334Z,48
2017-05-07T08:24:45.971Z,48
2017-05-07T08:25:45.912Z,48
2017-05-07T08:26:45.547Z,52
2017-05-07T08:27:46.090Z,48
2017-05-07T08:28:46.023Z,52
2017-05-07T08:29:45.663Z,48
2017-05-07T08:30:45.601Z,52
2017-05-07T08:31:45.544Z,48
2017-05-07T08:32:45.777Z,44
2017-05-07T08:33:45.719Z,44
2017-05-07T08:34:45.651Z,44
2017-05-07T08:35:45.592Z,44
2017-05-07T08:36:45.229Z,44
2017-05-07T08:37:45.475Z,44
2017-05-07T08:38:45.403Z,44
2017-05-07T08:39:45.344Z,44
2017-05-07T08:40:45.288Z,44
2017-05-07T08:41:45.222Z,44
2017-05-07T08:42:44.863Z,44
2017-05-07T08:43:45.098Z,44
2017-05-07T08:44:45.031Z,48
2017-05-07T08:45:44.988Z,52
2017-05-07T08:46:44.911Z,52
2017-05-07T08:47:44.544Z,56
2017-05-07T08:48:44.480Z,60
2017-05-07T08:49:44.727Z,60
2017-05-07T08:50:44.360Z,60
2017-05-07T08:51:44.331Z,60
2017-05-07T08:52:44.540Z,60
2017-05-07T08:53:44.477Z,60
2017-05-07T08:54:44.418Z,60
2017-05-07T08:55:44.353Z,60
2017-05-07T08:56:43.987Z,60
2017-05-07T08:57:43.925Z,56
2017-05-07T08:58:44.164Z,52
2017-05-07T08:59:44.108Z,56
2017-05-07T09:00:45.185Z,52
2017-05-07T09:01:43.984Z,52
2017-05-07T09:02:43.614Z,52
2017-05-07T09:03:43.855Z,52
2017-05-07T09:04:43.794Z,52
2017-05-07T09:05:43.832Z,52
2017-05-07T09:06:43.670Z,56
2017-05-07T09:07:43.614Z,56
2017-05-07T09:08:43.547Z,60
2017-05-07T09:09:43.182Z,60
2017-05-07T09:10:43.124Z,60
2017-05-07T09:11:43.054Z,56
2017-05-07T09:12:42.999Z,60
2017-05-07T09:13:43.236Z,56
2017-05-07T09:14:43.173Z,56
2017-05-07T09:15:43.107Z,52
2017-05-07T09:16:43.049Z,52
2017-05-07T09:17:42.990Z,56
2017-05-07T09:18:42.932Z,56
2017-05-07T09:19:42.859Z,52
2017-05-07T09:20:42.806Z,52
2017-05-07T09:21:42.737Z,52
2017-05-07T09:22:42.682Z,48
2017-05-07T09:23:42.619Z,48
2017-05-07T09:24:42.556Z,44
2017-05-07T09:25:42.508Z,44
2017-05-07T09:26:42.427Z,44
2017-05-07T09:27:42.366Z,40
2017-05-07T09:28:42.309Z,40
2017-05-07T09:29:42.254Z,40
2017-05-07T09:30:42.186Z,36
2017-05-07T09:31:42.124Z,36
2017-05-07T09:32:41.765Z,36
2017-05-07T09:33:41.994Z,36
2017-05-07T09:34:41.932Z,40
2017-05-07T09:35:41.889Z,40
2017-05-07T09:36:41.815Z,36
2017-05-07T09:37:41.749Z,36
2017-05-07T09:38:41.383Z,36
2017-05-07T09:39:41.626Z,36
2017-05-07T09:40:41.567Z,36
2017-05-07T09:41:41.499Z,36
2017-05-07T09:42:41.437Z,36
2017-05-07T09:43:41.400Z,36
2017-05-07T09:44:41.315Z,40
2017-05-07T09:45:40.953Z,40
2017-05-07T09:46:40.893Z,40
2017-05-07T09:47:41.126Z,40
2017-05-07T09:48:41.068Z,40
2017-05-07T09:49:41.012Z,36
2017-05-07T09:50:40.941Z,40
2017-05-07T09:51:40.879Z,40
2017-05-07T09:52:40.822Z,40
2017-05-07T09:53:40.759Z,44
2017-05-07T09:54:40.708Z,40
2017-05-07T09:55:40.635Z,44
2017-05-07T09:56:40.271Z,44
2017-05-07T09:57:40.507Z,44
2017-05-07T09:58:40.446Z,48
2017-05-07T09:59:40.385Z,48
2017-05-07T10:00:40.019Z,48
2017-05-07T10:01:39.963Z,52
2017-05-07T10:02:40.199Z,52
2017-05-07T10:03:40.139Z,56
2017-05-07T10:04:40.078Z,72
2017-05-07T10:05:40.015Z,236
2017-05-07T10:06:39.950Z,196
2017-05-07T10:07:39.589Z,192
2017-05-07T10:08:39.824Z,228
2017-05-07T10:09:39.775Z,220
2017-05-07T10:10:39.705Z,224
2017-05-07T10:11:39.647Z,220
2017-05-07T10:12:39.577Z,216
2017-05-07T10:13:39.516Z,204
2017-05-07T10:14:39.458Z,212
2017-05-07T10:15:39.399Z,212
2017-05-07T10:16:39.330Z,224
2017-05-07T10:17:39.269Z,224
2017-05-07T10:18:39.209Z,240
2017-05-07T10:19:39.145Z,236
2017-05-07T10:20:39.089Z,236
2017-05-07T10:21:39.022Z,240
2017-05-07T10:22:38.963Z,252
2017-05-07T10:23:38.900Z,244
2017-05-07T10:24:38.839Z,224
2017-05-07T10:25:38.777Z,224
2017-05-07T10:26:38.742Z,220
2017-05-07T10:27:38.654Z,212
2017-05-07T10:28:38.588Z,204
2017-05-07T10:29:38.529Z,204
2017-05-07T10:30:38.471Z,204
2017-05-07T10:31:38.404Z,200
2017-05-07T10:32:38.341Z,224
2017-05-07T10:33:38.282Z,232
2017-05-07T10:34:38.218Z,236
2017-05-07T10:35:38.157Z,232
2017-05-07T10:36:38.097Z,232
2017-05-07T10:37:38.037Z,232
2017-05-07T10:38:37.671Z,228
2017-05-07T10:39:37.908Z,224
2017-05-07T10:40:37.849Z,228
2017-05-07T10:41:37.482Z,228
2017-05-07T10:42:37.420Z,228
2017-05-07T10:43:37.656Z,120
2017-05-07T10:44:37.600Z,192
2017-05-07T10:45:37.249Z,204
2017-05-07T10:46:37.474Z,236
2017-05-07T10:47:37.415Z,224
2017-05-07T10:48:37.351Z,200
2017-05-07T10:49:37.289Z,200
2017-05-07T10:50:37.328Z,228
2017-05-07T10:51:37.163Z,224
2017-05-07T10:52:37.101Z,224
2017-05-07T10:53:37.042Z,84
2017-05-07T10:54:36.981Z,168
2017-05-07T10:55:36.921Z,176
2017-05-07T10:56:36.859Z,204
2017-05-07T10:57:36.796Z,208
2017-05-07T10:58:36.733Z,204
2017-05-07T10:59:36.677Z,176
2017-05-07T11:00:36.606Z,160
2017-05-07T11:01:36.549Z,188
2017-05-07T11:02:36.185Z,108
2017-05-07T11:03:36.431Z,104
2017-05-07T11:04:36.367Z,92
2017-05-07T11:05:36.453Z,72
2017-05-07T11:06:36.242Z,128
2017-05-07T11:07:36.177Z,104
2017-05-07T11:08:35.545Z,72
2017-05-07T11:09:36.052Z,80
2017-05-07T11:10:36.002Z,112
2017-05-07T11:11:35.930Z,84
2017-05-07T11:12:35.866Z,96
2017-05-07T11:13:35.812Z,88
2017-05-07T11:14:35.747Z,92
2017-05-07T11:15:35.694Z,176
2017-05-07T11:16:35.320Z,144
2017-05-07T11:17:35.556Z,152
2017-05-07T11:18:35.499Z,80
2017-05-07T11:19:35.439Z,68
2017-05-07T11:20:35.371Z,60
2017-05-07T11:21:35.309Z,64
2017-05-07T11:22:34.952Z,128
2017-05-07T11:23:35.192Z,156
2017-05-07T11:24:35.128Z,180
2017-05-07T11:25:34.765Z,180
2017-05-07T11:26:35.007Z,172
2017-05-07T11:27:34.946Z,188
2017-05-07T11:28:34.888Z,184
2017-05-07T11:29:34.825Z,172
2017-05-07T11:30:34.864Z,172
2017-05-07T11:31:34.695Z,160
2017-05-07T11:32:34.630Z,164
2017-05-07T11:33:34.571Z,164
2017-05-07T11:34:34.509Z,136
2017-05-07T11:35:34.446Z,192
2017-05-07T11:36:34.385Z,172
2017-05-07T11:37:34.324Z,172
2017-05-07T11:38:34.265Z,180
2017-05-07T11:39:34.202Z,136
2017-05-07T11:40:34.135Z,104
2017-05-07T11:41:34.103Z,112
2017-05-07T11:42:34.020Z,112
2017-05-07T11:43:33.959Z,68
2017-05-07T11:44:33.895Z,124
2017-05-07T11:45:33.831Z,172
2017-05-07T11:46:33.468Z,168
2017-05-07T11:47:33.435Z,176
2017-05-07T11:48:33.646Z,172
2017-05-07T11:49:33.592Z,164
2017-05-07T11:50:33.517Z,136
2017-05-07T11:51:33.458Z,164
2017-05-07T11:52:33.398Z,168
2017-05-07T11:53:33.338Z,168
2017-05-07T11:54:33.281Z,152
2017-05-07T11:55:33.217Z,132
2017-05-07T11:56:33.148Z,88
2017-05-07T11:57:33.086Z,80
2017-05-07T11:58:33.029Z,88
2017-05-07T11:59:32.666Z,112
2017-05-07T12:00:32.607Z,96
2017-05-07T12:01:32.855Z,180
2017-05-07T12:02:32.477Z,140
2017-05-07T12:03:32.720Z,168
2017-05-07T12:04:32.660Z,172
2017-05-07T12:05:32.611Z,128
2017-05-07T12:06:32.538Z,148
2017-05-07T12:07:32.475Z,140
2017-05-07T12:08:32.411Z,136
2017-05-07T12:09:32.353Z,144
2017-05-07T12:10:32.287Z,148
2017-05-07T12:11:32.226Z,160
2017-05-07T12:12:32.167Z,160
2017-05-07T12:13:31.802Z,164
2017-05-07T12:14:32.036Z,168
2017-05-07T12:15:31.976Z,160
2017-05-07T12:16:31.922Z,160
2017-05-07T12:17:31.553Z,92
2017-05-07T12:18:31.793Z,124
2017-05-07T12:19:31.735Z,156
2017-05-07T12:20:31.672Z,156
2017-05-07T12:21:31.611Z,140
2017-05-07T12:22:31.545Z,148
2017-05-07T12:23:31.185Z,148
2017-05-07T12:24:31.426Z,116
2017-05-07T12:25:31.371Z,116
2017-05-07T12:26:31.311Z,132
2017-05-07T12:27:31.244Z,88
2017-05-07T12:28:31.177Z,72
2017-05-07T12:29:31.116Z,88
2017-05-07T12:30:31.068Z,84
2017-05-07T12:31:31.004Z,72
2017-05-07T12:32:30.635Z,64
2017-05-07T12:33:30.569Z,60
2017-05-07T12:34:30.508Z,72
2017-05-07T12:35:30.748Z,80
2017-05-07T12:36:30.689Z,76
2017-05-07T12:37:30.621Z,52
2017-05-07T12:38:30.567Z,52
2017-05-07T12:39:30.511Z,56
2017-05-07T12:40:30.438Z,56
2017-05-07T12:41:30.087Z,64
2017-05-07T12:42:30.315Z,68
2017-05-07T12:43:30.251Z,148
2017-05-07T12:44:29.889Z,140
2017-05-07T12:45:30.142Z,84
2017-05-07T12:46:30.068Z,84
2017-05-07T12:47:30.012Z,80
2017-05-07T12:48:29.946Z,64
2017-05-07T12:49:29.884Z,80
2017-05-07T12:50:29.826Z,84
2017-05-07T12:51:29.760Z,104
2017-05-07T12:52:29.396Z,100
2017-05-07T12:53:29.635Z,124
2017-05-07T12:54:29.574Z,132
2017-05-07T12:55:29.518Z,136
2017-05-07T12:56:29.456Z,128
2017-05-07T12:57:29.391Z,124
2017-05-07T12:58:29.032Z,148
2017-05-07T12:59:29.269Z,144
2017-05-07T13:00:28.902Z,144
2017-05-07T13:01:29.144Z,148
2017-05-07T13:02:29.082Z,152
2017-05-07T13:03:29.024Z,148
2017-05-07T13:04:28.958Z,152
2017-05-07T13:05:28.894Z,152
2017-05-07T13:06:28.836Z,156
2017-05-07T13:07:28.775Z,156
2017-05-07T13:08:28.719Z,160
2017-05-07T13:09:28.658Z,144
2017-05-07T13:10:28.286Z,156
2017-05-07T13:11:28.229Z,156
2017-05-07T13:12:28.466Z,148
2017-05-07T13:13:28.103Z,156
2017-05-07T13:14:28.348Z,160
2017-05-07T13:15:28.281Z,156
2017-05-07T13:16:28.219Z,156
2017-05-07T13:17:28.156Z,156
2017-05-07T13:18:28.098Z,160
2017-05-07T13:19:28.033Z,160
2017-05-07T13:20:27.975Z,160
2017-05-07T13:21:27.914Z,160
2017-05-07T13:22:27.855Z,160
2017-05-07T13:23:27.793Z,156
2017-05-07T13:24:27.724Z,152
2017-05-07T13:25:27.662Z,152
2017-05-07T13:26:27.606Z,152
2017-05-07T13:27:27.549Z,148
2017-05-07T13:28:27.479Z,148
2017-05-07T13:29:27.414Z,144
2017-05-07T13:30:27.353Z,140
2017-05-07T13:31:27.297Z,140
2017-05-07T13:32:27.244Z,140
2017-05-07T13:33:27.172Z,136
2017-05-07T13:34:27.112Z,132
2017-05-07T13:35:27.050Z,132
2017-05-07T13:36:26.985Z,132
2017-05-07T13:37:26.925Z,132
2017-05-07T13:38:26.862Z,140
2017-05-07T13:39:26.800Z,140
2017-05-07T13:40:26.739Z,140
2017-05-07T13:41:26.386Z,140
2017-05-07T13:42:26.618Z,140
2017-05-07T13:43:26.554Z,140
2017-05-07T13:44:26.499Z,140
2017-05-07T13:45:26.434Z,136
2017-05-07T13:46:26.366Z,128
2017-05-07T13:47:26.313Z,128
2017-05-07T13:48:26.251Z,124
2017-05-07T13:49:25.890Z,120
2017-05-07T13:50:25.823Z,116
2017-05-07T13:51:25.759Z,112
2017-05-07T13:52:26.001Z,108
2017-05-07T13:53:25.336Z,104
2017-05-07T13:54:25.873Z,108
2017-05-07T13:55:25.822Z,104
2017-05-07T13:56:25.151Z,100
2017-05-07T13:57:25.692Z,96
2017-05-07T13:58:25.330Z,92
2017-05-07T13:59:25.569Z,92
2017-05-07T14:00:25.513Z,92
2017-05-07T14:01:25.450Z,88
2017-05-07T14:02:25.393Z,88
2017-05-07T14:03:25.326Z,88
2017-05-07T14:04:25.260Z,84
2017-05-07T14:05:25.200Z,88
2017-05-07T14:06:25.144Z,84
2017-05-07T14:07:25.081Z,80
2017-05-07T14:08:25.015Z,80
2017-05-07T14:09:24.951Z,80
2017-05-07T14:10:24.890Z,76
2017-05-07T14:11:24.833Z,76
2017-05-07T14:12:24.779Z,72
2017-05-07T14:13:24.709Z,76
2017-05-07T14:14:24.659Z,72
2017-05-07T14:15:24.593Z,68
2017-05-07T14:16:24.528Z,68
2017-05-07T14:17:24.463Z,68
2017-05-07T14:18:24.400Z,68
2017-05-07T14:19:24.034Z,64